sensor_id;sensor_type;location;lat;lon;timestamp;P1;durP1;ratioP1;P2;durP2;ratioP2
59880;SDS011;45751;51.380;10.326;2023-08-31T00:01:00;6.32;;;2.00;;
59880;SDS011;45751;51.380;10.326;2023-08-31T00:03:30;7.10;;;2.45;;
59880;SDS011;45751;51.380;10.326;2023-08-31T00:06:00;9.52;;;2.47;;
59880;SDS011;45751;51.380;10.326;2023-08-31T00:08:28;9.27;;;2.47;;
59880;SDS011;45751;51.380;10.326;2023-08-31T00:10:56;7.82;;;2.63;;
59880;SDS011;45751;51.380;10.326;2023-08-31T00:13:24;8.13;;;2.78;;
59880;SDS011;45751;51.380;10.326;2023-08-31T00:15:51;9.13;;;2.70;;
59880;SDS011;45751;51.380;10.326;2023-08-31T00:18:20;10.63;;;3.17;;
59880;SDS011;45751;51.380;10.326;2023-08-31T00:20:47;7.47;;;2.55;;
59880;SDS011;45751;51.380;10.326;2023-08-31T00:23:14;7.25;;;3.00;;
59880;SDS011;45751;51.380;10.326;2023-08-31T00:25:40;10.45;;;3.13;;
59880;SDS011;45751;51.380;10.326;2023-08-31T00:28:09;7.82;;;3.20;;
59880;SDS011;45751;51.380;10.326;2023-08-31T00:30:36;11.68;;;3.38;;
59880;SDS011;45751;51.380;10.326;2023-08-31T00:33:04;8.80;;;3.25;;
59880;SDS011;45751;51.380;10.326;2023-08-31T00:35:33;8.20;;;3.42;;
59880;SDS011;45751;51.380;10.326;2023-08-31T00:38:00;7.50;;;2.88;;
59880;SDS011;45751;51.380;10.326;2023-08-31T00:40:30;8.05;;;2.85;;
59880;SDS011;45751;51.380;10.326;2023-08-31T00:42:58;10.25;;;3.95;;
59880;SDS011;45751;51.380;10.326;2023-08-31T00:45:25;8.45;;;3.00;;
59880;SDS011;45751;51.380;10.326;2023-08-31T00:47:53;9.73;;;3.33;;
59880;SDS011;45751;51.380;10.326;2023-08-31T00:50:21;8.18;;;3.65;;
59880;SDS011;45751;51.380;10.326;2023-08-31T00:52:48;9.38;;;3.67;;
59880;SDS011;45751;51.380;10.326;2023-08-31T00:55:14;10.55;;;3.80;;
59880;SDS011;45751;51.380;10.326;2023-08-31T00:57:44;9.98;;;3.88;;
59880;SDS011;45751;51.380;10.326;2023-08-31T01:00:13;7.90;;;3.38;;
59880;SDS011;45751;51.380;10.326;2023-08-31T01:02:44;9.05;;;3.80;;
59880;SDS011;45751;51.380;10.326;2023-08-31T01:10:58;9.48;;;3.75;;
59880;SDS011;45751;51.380;10.326;2023-08-31T01:13:39;11.65;;;3.42;;
59880;SDS011;45751;51.380;10.326;2023-08-31T01:16:09;13.50;;;4.60;;
59880;SDS011;45751;51.380;10.326;2023-08-31T01:18:37;8.95;;;3.53;;
59880;SDS011;45751;51.380;10.326;2023-08-31T01:23:49;10.90;;;3.65;;
59880;SDS011;45751;51.380;10.326;2023-08-31T01:26:20;8.55;;;3.30;;
59880;SDS011;45751;51.380;10.326;2023-08-31T01:28:49;9.35;;;3.53;;
59880;SDS011;45751;51.380;10.326;2023-08-31T01:31:17;8.27;;;2.97;;
59880;SDS011;45751;51.380;10.326;2023-08-31T01:33:46;7.70;;;2.90;;
59880;SDS011;45751;51.380;10.326;2023-08-31T01:36:24;7.72;;;3.30;;
59880;SDS011;45751;51.380;10.326;2023-08-31T01:39:06;8.70;;;3.38;;
59880;SDS011;45751;51.380;10.326;2023-08-31T01:41:55;9.73;;;2.92;;
59880;SDS011;45751;51.380;10.326;2023-08-31T01:44:24;9.25;;;3.10;;
59880;SDS011;45751;51.380;10.326;2023-08-31T01:46:52;9.23;;;3.13;;
59880;SDS011;45751;51.380;10.326;2023-08-31T01:49:23;11.40;;;3.85;;
59880;SDS011;45751;51.380;10.326;2023-08-31T01:51:50;7.90;;;3.60;;
59880;SDS011;45751;51.380;10.326;2023-08-31T01:54:18;9.73;;;3.67;;
59880;SDS011;45751;51.380;10.326;2023-08-31T01:56:45;10.40;;;4.30;;
59880;SDS011;45751;51.380;10.326;2023-08-31T01:59:12;9.30;;;3.65;;
59880;SDS011;45751;51.380;10.326;2023-08-31T02:01:39;9.50;;;3.83;;
59880;SDS011;45751;51.380;10.326;2023-08-31T02:04:06;9.95;;;4.38;;
59880;SDS011;45751;51.380;10.326;2023-08-31T02:06:32;12.32;;;4.18;;
59880;SDS011;45751;51.380;10.326;2023-08-31T02:08:59;10.43;;;5.03;;
59880;SDS011;45751;51.380;10.326;2023-08-31T02:11:26;9.88;;;4.57;;
59880;SDS011;45751;51.380;10.326;2023-08-31T02:13:54;9.20;;;4.30;;
59880;SDS011;45751;51.380;10.326;2023-08-31T02:16:21;13.38;;;5.03;;
59880;SDS011;45751;51.380;10.326;2023-08-31T02:18:48;10.52;;;4.53;;
59880;SDS011;45751;51.380;10.326;2023-08-31T02:21:15;10.50;;;4.80;;
59880;SDS011;45751;51.380;10.326;2023-08-31T02:23:43;10.43;;;4.40;;
59880;SDS011;45751;51.380;10.326;2023-08-31T02:26:10;14.95;;;5.43;;
59880;SDS011;45751;51.380;10.326;2023-08-31T02:28:37;13.93;;;5.32;;
59880;SDS011;45751;51.380;10.326;2023-08-31T02:31:04;13.10;;;4.95;;
59880;SDS011;45751;51.380;10.326;2023-08-31T02:33:31;9.40;;;4.53;;
59880;SDS011;45751;51.380;10.326;2023-08-31T02:35:58;12.70;;;4.38;;
59880;SDS011;45751;51.380;10.326;2023-08-31T02:38:25;14.48;;;4.88;;
59880;SDS011;45751;51.380;10.326;2023-08-31T02:40:52;13.55;;;4.95;;
59880;SDS011;45751;51.380;10.326;2023-08-31T02:43:19;9.27;;;4.75;;
59880;SDS011;45751;51.380;10.326;2023-08-31T02:45:48;10.93;;;4.65;;
59880;SDS011;45751;51.380;10.326;2023-08-31T02:48:15;11.27;;;4.53;;
59880;SDS011;45751;51.380;10.326;2023-08-31T02:50:42;9.02;;;3.85;;
59880;SDS011;45751;51.380;10.326;2023-08-31T02:53:09;11.05;;;4.45;;
59880;SDS011;45751;51.380;10.326;2023-08-31T02:55:36;8.82;;;4.22;;
59880;SDS011;45751;51.380;10.326;2023-08-31T02:58:03;11.80;;;5.35;;
59880;SDS011;45751;51.380;10.326;2023-08-31T03:00:31;14.20;;;7.03;;
59880;SDS011;45751;51.380;10.326;2023-08-31T03:02:59;11.02;;;5.00;;
59880;SDS011;45751;51.380;10.326;2023-08-31T03:05:27;10.35;;;4.10;;
59880;SDS011;45751;51.380;10.326;2023-08-31T03:07:54;11.95;;;4.88;;
59880;SDS011;45751;51.380;10.326;2023-08-31T03:10:23;11.32;;;3.88;;
59880;SDS011;45751;51.380;10.326;2023-08-31T03:12:50;9.90;;;4.95;;
59880;SDS011;45751;51.380;10.326;2023-08-31T03:15:17;10.68;;;4.63;;
59880;SDS011;45751;51.380;10.326;2023-08-31T03:17:44;12.23;;;4.38;;
59880;SDS011;45751;51.380;10.326;2023-08-31T03:20:11;10.75;;;4.65;;
59880;SDS011;45751;51.380;10.326;2023-08-31T03:22:38;9.73;;;4.60;;
59880;SDS011;45751;51.380;10.326;2023-08-31T03:25:05;10.68;;;4.65;;
59880;SDS011;45751;51.380;10.326;2023-08-31T03:27:32;11.95;;;4.30;;
59880;SDS011;45751;51.380;10.326;2023-08-31T03:30:00;10.63;;;4.00;;
59880;SDS011;45751;51.380;10.326;2023-08-31T03:32:27;10.95;;;4.30;;
59880;SDS011;45751;51.380;10.326;2023-08-31T03:34:54;11.35;;;4.47;;
59880;SDS011;45751;51.380;10.326;2023-08-31T03:37:21;9.73;;;3.80;;
59880;SDS011;45751;51.380;10.326;2023-08-31T03:39:48;10.65;;;4.03;;
59880;SDS011;45751;51.380;10.326;2023-08-31T03:42:15;9.23;;;4.57;;
59880;SDS011;45751;51.380;10.326;2023-08-31T03:44:43;10.07;;;3.90;;
59880;SDS011;45751;51.380;10.326;2023-08-31T03:47:10;13.93;;;4.38;;
59880;SDS011;45751;51.380;10.326;2023-08-31T03:49:38;10.30;;;4.15;;
59880;SDS011;45751;51.380;10.326;2023-08-31T03:52:06;10.82;;;4.47;;
59880;SDS011;45751;51.380;10.326;2023-08-31T03:54:33;10.80;;;4.75;;
59880;SDS011;45751;51.380;10.326;2023-08-31T03:57:00;13.15;;;4.80;;
59880;SDS011;45751;51.380;10.326;2023-08-31T03:59:27;14.25;;;5.32;;
59880;SDS011;45751;51.380;10.326;2023-08-31T04:01:56;18.50;;;4.60;;
59880;SDS011;45751;51.380;10.326;2023-08-31T04:04:23;10.85;;;4.78;;
59880;SDS011;45751;51.380;10.326;2023-08-31T04:06:49;10.20;;;4.28;;
59880;SDS011;45751;51.380;10.326;2023-08-31T04:09:16;12.85;;;4.72;;
59880;SDS011;45751;51.380;10.326;2023-08-31T04:11:43;12.50;;;4.88;;
59880;SDS011;45751;51.380;10.326;2023-08-31T04:14:10;9.55;;;4.82;;
59880;SDS011;45751;51.380;10.326;2023-08-31T04:16:37;11.60;;;4.28;;
59880;SDS011;45751;51.380;10.326;2023-08-31T04:19:04;9.85;;;4.32;;
59880;SDS011;45751;51.380;10.326;2023-08-31T04:21:31;10.88;;;4.97;;
59880;SDS011;45751;51.380;10.326;2023-08-31T04:23:58;12.13;;;5.03;;
59880;SDS011;45751;51.380;10.326;2023-08-31T04:26:26;10.90;;;5.00;;
59880;SDS011;45751;51.380;10.326;2023-08-31T04:28:54;11.32;;;4.55;;
59880;SDS011;45751;51.380;10.326;2023-08-31T04:31:21;11.93;;;4.78;;
59880;SDS011;45751;51.380;10.326;2023-08-31T04:33:48;11.13;;;4.97;;
59880;SDS011;45751;51.380;10.326;2023-08-31T04:36:20;11.02;;;4.57;;
59880;SDS011;45751;51.380;10.326;2023-08-31T04:38:50;10.75;;;4.50;;
59880;SDS011;45751;51.380;10.326;2023-08-31T04:41:18;9.63;;;4.20;;
59880;SDS011;45751;51.380;10.326;2023-08-31T04:43:45;11.27;;;4.75;;
59880;SDS011;45751;51.380;10.326;2023-08-31T04:46:15;10.57;;;4.57;;
59880;SDS011;45751;51.380;10.326;2023-08-31T04:48:42;12.52;;;5.20;;
59880;SDS011;45751;51.380;10.326;2023-08-31T04:51:09;11.32;;;4.70;;
59880;SDS011;45751;51.380;10.326;2023-08-31T04:53:56;9.82;;;4.57;;
59880;SDS011;45751;51.380;10.326;2023-08-31T04:56:23;13.02;;;5.72;;
59880;SDS011;45751;51.380;10.326;2023-08-31T04:58:50;11.93;;;5.00;;
59880;SDS011;45751;51.380;10.326;2023-08-31T05:01:17;12.77;;;5.18;;
59880;SDS011;45751;51.380;10.326;2023-08-31T05:03:44;11.00;;;5.18;;
59880;SDS011;45751;51.380;10.326;2023-08-31T05:06:11;13.20;;;5.88;;
59880;SDS011;45751;51.380;10.326;2023-08-31T05:08:38;14.80;;;5.78;;
59880;SDS011;45751;51.380;10.326;2023-08-31T05:11:05;14.07;;;6.28;;
59880;SDS011;45751;51.380;10.326;2023-08-31T05:13:31;15.57;;;5.90;;
59880;SDS011;45751;51.380;10.326;2023-08-31T05:15:58;15.40;;;6.80;;
59880;SDS011;45751;51.380;10.326;2023-08-31T05:18:25;13.18;;;5.85;;
59880;SDS011;45751;51.380;10.326;2023-08-31T05:20:52;10.82;;;5.15;;
59880;SDS011;45751;51.380;10.326;2023-08-31T05:23:19;13.73;;;5.65;;
59880;SDS011;45751;51.380;10.326;2023-08-31T05:25:46;12.38;;;6.22;;
59880;SDS011;45751;51.380;10.326;2023-08-31T05:28:13;12.38;;;5.28;;
59880;SDS011;45751;51.380;10.326;2023-08-31T05:30:53;12.48;;;4.80;;
59880;SDS011;45751;51.380;10.326;2023-08-31T05:33:21;14.48;;;6.10;;
59880;SDS011;45751;51.380;10.326;2023-08-31T05:35:48;11.18;;;4.25;;
59880;SDS011;45751;51.380;10.326;2023-08-31T05:38:15;14.20;;;4.75;;
59880;SDS011;45751;51.380;10.326;2023-08-31T05:40:42;13.43;;;4.63;;
59880;SDS011;45751;51.380;10.326;2023-08-31T05:43:12;10.80;;;4.53;;
59880;SDS011;45751;51.380;10.326;2023-08-31T05:45:40;11.93;;;4.20;;
59880;SDS011;45751;51.380;10.326;2023-08-31T05:48:07;10.20;;;4.57;;
59880;SDS011;45751;51.380;10.326;2023-08-31T05:50:34;13.05;;;4.40;;
59880;SDS011;45751;51.380;10.326;2023-08-31T05:53:05;10.68;;;4.32;;
59880;SDS011;45751;51.380;10.326;2023-08-31T05:55:34;8.80;;;4.28;;
59880;SDS011;45751;51.380;10.326;2023-08-31T05:58:01;10.70;;;4.43;;
59880;SDS011;45751;51.380;10.326;2023-08-31T06:00:28;13.25;;;4.70;;
59880;SDS011;45751;51.380;10.326;2023-08-31T06:02:57;11.00;;;4.47;;
59880;SDS011;45751;51.380;10.326;2023-08-31T06:05:24;10.38;;;4.70;;
59880;SDS011;45751;51.380;10.326;2023-08-31T06:07:51;12.82;;;3.42;;
59880;SDS011;45751;51.380;10.326;2023-08-31T06:10:18;8.52;;;3.35;;
59880;SDS011;45751;51.380;10.326;2023-08-31T06:12:45;6.90;;;2.80;;
59880;SDS011;45751;51.380;10.326;2023-08-31T06:15:12;9.13;;;3.10;;
59880;SDS011;45751;51.380;10.326;2023-08-31T06:17:41;7.63;;;2.50;;
59880;SDS011;45751;51.380;10.326;2023-08-31T06:20:08;6.30;;;2.55;;
59880;SDS011;45751;51.380;10.326;2023-08-31T06:22:35;8.15;;;2.80;;
59880;SDS011;45751;51.380;10.326;2023-08-31T06:25:02;7.65;;;2.30;;
59880;SDS011;45751;51.380;10.326;2023-08-31T06:27:31;7.68;;;3.28;;
59880;SDS011;45751;51.380;10.326;2023-08-31T06:29:58;9.20;;;3.70;;
59880;SDS011;45751;51.380;10.326;2023-08-31T06:32:25;11.05;;;4.20;;
59880;SDS011;45751;51.380;10.326;2023-08-31T06:34:53;8.30;;;3.47;;
59880;SDS011;45751;51.380;10.326;2023-08-31T06:37:20;9.20;;;3.78;;
59880;SDS011;45751;51.380;10.326;2023-08-31T06:39:47;11.80;;;4.25;;
59880;SDS011;45751;51.380;10.326;2023-08-31T06:42:14;10.75;;;4.25;;
59880;SDS011;45751;51.380;10.326;2023-08-31T06:44:43;10.15;;;4.60;;
59880;SDS011;45751;51.380;10.326;2023-08-31T06:47:10;14.32;;;6.72;;
59880;SDS011;45751;51.380;10.326;2023-08-31T06:49:36;12.20;;;5.45;;
59880;SDS011;45751;51.380;10.326;2023-08-31T06:52:03;11.43;;;5.63;;
59880;SDS011;45751;51.380;10.326;2023-08-31T06:54:54;10.82;;;4.97;;
59880;SDS011;45751;51.380;10.326;2023-08-31T06:57:22;12.38;;;6.13;;
59880;SDS011;45751;51.380;10.326;2023-08-31T06:59:50;12.75;;;5.82;;
59880;SDS011;45751;51.380;10.326;2023-08-31T07:02:17;14.80;;;5.97;;
59880;SDS011;45751;51.380;10.326;2023-08-31T07:04:45;12.45;;;5.90;;
59880;SDS011;45751;51.380;10.326;2023-08-31T07:07:14;12.57;;;6.15;;
59880;SDS011;45751;51.380;10.326;2023-08-31T07:09:45;11.77;;;5.90;;
59880;SDS011;45751;51.380;10.326;2023-08-31T07:12:13;12.20;;;6.22;;
59880;SDS011;45751;51.380;10.326;2023-08-31T07:14:40;13.10;;;5.57;;
59880;SDS011;45751;51.380;10.326;2023-08-31T07:17:08;16.02;;;6.25;;
59880;SDS011;45751;51.380;10.326;2023-08-31T07:19:35;19.17;;;9.32;;
59880;SDS011;45751;51.380;10.326;2023-08-31T07:22:04;10.30;;;5.75;;
59880;SDS011;45751;51.380;10.326;2023-08-31T07:24:32;11.75;;;5.43;;
59880;SDS011;45751;51.380;10.326;2023-08-31T07:27:04;11.65;;;5.35;;
59880;SDS011;45751;51.380;10.326;2023-08-31T07:29:31;11.48;;;5.22;;
59880;SDS011;45751;51.380;10.326;2023-08-31T07:31:59;9.38;;;4.75;;
59880;SDS011;45751;51.380;10.326;2023-08-31T07:34:26;12.63;;;5.05;;
59880;SDS011;45751;51.380;10.326;2023-08-31T07:36:53;9.07;;;4.35;;
59880;SDS011;45751;51.380;10.326;2023-08-31T07:39:20;13.80;;;4.28;;
59880;SDS011;45751;51.380;10.326;2023-08-31T07:41:47;11.27;;;4.78;;
59880;SDS011;45751;51.380;10.326;2023-08-31T07:44:16;9.07;;;4.03;;
59880;SDS011;45751;51.380;10.326;2023-08-31T07:46:43;14.57;;;4.43;;
59880;SDS011;45751;51.380;10.326;2023-08-31T07:49:10;13.07;;;4.40;;
59880;SDS011;45751;51.380;10.326;2023-08-31T07:51:37;9.70;;;4.90;;
59880;SDS011;45751;51.380;10.326;2023-08-31T07:54:04;9.40;;;4.32;;
59880;SDS011;45751;51.380;10.326;2023-08-31T07:56:31;8.27;;;3.33;;
59880;SDS011;45751;51.380;10.326;2023-08-31T07:58:58;9.15;;;3.72;;
59880;SDS011;45751;51.380;10.326;2023-08-31T08:01:25;9.68;;;3.90;;
59880;SDS011;45751;51.380;10.326;2023-08-31T08:03:52;9.38;;;4.18;;
59880;SDS011;45751;51.380;10.326;2023-08-31T08:06:19;9.75;;;3.70;;
59880;SDS011;45751;51.380;10.326;2023-08-31T08:08:46;12.25;;;3.65;;
59880;SDS011;45751;51.380;10.326;2023-08-31T08:11:13;7.75;;;3.33;;
59880;SDS011;45751;51.380;10.326;2023-08-31T08:13:39;8.60;;;3.72;;
59880;SDS011;45751;51.380;10.326;2023-08-31T08:16:06;8.45;;;3.53;;
59880;SDS011;45751;51.380;10.326;2023-08-31T08:18:35;7.85;;;3.33;;
59880;SDS011;45751;51.380;10.326;2023-08-31T08:21:02;13.60;;;4.05;;
59880;SDS011;45751;51.380;10.326;2023-08-31T08:23:30;7.45;;;3.33;;
59880;SDS011;45751;51.380;10.326;2023-08-31T08:25:56;10.23;;;3.72;;
59880;SDS011;45751;51.380;10.326;2023-08-31T08:28:26;8.90;;;3.83;;
59880;SDS011;45751;51.380;10.326;2023-08-31T08:30:53;9.63;;;4.03;;
59880;SDS011;45751;51.380;10.326;2023-08-31T08:33:20;10.10;;;3.33;;
59880;SDS011;45751;51.380;10.326;2023-08-31T08:35:47;9.45;;;3.10;;
59880;SDS011;45751;51.380;10.326;2023-08-31T08:38:14;7.07;;;3.03;;
59880;SDS011;45751;51.380;10.326;2023-08-31T08:40:40;7.78;;;3.03;;
59880;SDS011;45751;51.380;10.326;2023-08-31T08:43:07;10.75;;;3.03;;
59880;SDS011;45751;51.380;10.326;2023-08-31T08:45:36;8.65;;;3.58;;
59880;SDS011;45751;51.380;10.326;2023-08-31T08:48:08;7.45;;;2.70;;
59880;SDS011;45751;51.380;10.326;2023-08-31T08:50:36;7.88;;;2.85;;
59880;SDS011;45751;51.380;10.326;2023-08-31T08:53:04;6.50;;;2.30;;
59880;SDS011;45751;51.380;10.326;2023-08-31T08:55:32;8.43;;;2.42;;
59880;SDS011;45751;51.380;10.326;2023-08-31T08:57:59;7.78;;;2.70;;
59880;SDS011;45751;51.380;10.326;2023-08-31T09:00:26;7.97;;;3.22;;
59880;SDS011;45751;51.380;10.326;2023-08-31T09:02:54;8.57;;;2.85;;
59880;SDS011;45751;51.380;10.326;2023-08-31T09:05:22;8.48;;;2.72;;
59880;SDS011;45751;51.380;10.326;2023-08-31T09:08:02;7.03;;;2.70;;
59880;SDS011;45751;51.380;10.326;2023-08-31T09:10:34;7.80;;;2.38;;
59880;SDS011;45751;51.380;10.326;2023-08-31T09:13:04;6.55;;;2.17;;
59880;SDS011;45751;51.380;10.326;2023-08-31T09:15:38;7.10;;;2.42;;
59880;SDS011;45751;51.380;10.326;2023-08-31T09:18:13;7.13;;;2.13;;
59880;SDS011;45751;51.380;10.326;2023-08-31T09:20:54;7.70;;;2.60;;
59880;SDS011;45751;51.380;10.326;2023-08-31T09:23:23;7.57;;;2.65;;
59880;SDS011;45751;51.380;10.326;2023-08-31T09:25:51;6.15;;;2.00;;
59880;SDS011;45751;51.380;10.326;2023-08-31T09:28:21;7.95;;;2.40;;
59880;SDS011;45751;51.380;10.326;2023-08-31T09:30:50;7.27;;;2.07;;
59880;SDS011;45751;51.380;10.326;2023-08-31T09:33:19;6.25;;;2.00;;
59880;SDS011;45751;51.380;10.326;2023-08-31T09:35:50;8.68;;;1.98;;
59880;SDS011;45751;51.380;10.326;2023-08-31T09:38:18;6.03;;;2.05;;
59880;SDS011;45751;51.380;10.326;2023-08-31T09:40:46;8.40;;;1.95;;
59880;SDS011;45751;51.380;10.326;2023-08-31T09:43:22;5.45;;;1.90;;
59880;SDS011;45751;51.380;10.326;2023-08-31T09:45:50;6.25;;;2.25;;
59880;SDS011;45751;51.380;10.326;2023-08-31T09:48:18;5.80;;;1.98;;
59880;SDS011;45751;51.380;10.326;2023-08-31T09:50:46;6.22;;;2.05;;
59880;SDS011;45751;51.380;10.326;2023-08-31T09:53:16;7.30;;;1.88;;
59880;SDS011;45751;51.380;10.326;2023-08-31T09:55:44;6.20;;;1.90;;
59880;SDS011;45751;51.380;10.326;2023-08-31T09:58:17;8.90;;;2.00;;
59880;SDS011;45751;51.380;10.326;2023-08-31T10:00:49;6.47;;;1.80;;
59880;SDS011;45751;51.380;10.326;2023-08-31T10:03:17;5.30;;;1.95;;
59880;SDS011;45751;51.380;10.326;2023-08-31T10:05:47;6.13;;;1.90;;
59880;SDS011;45751;51.380;10.326;2023-08-31T10:08:17;7.45;;;2.00;;
59880;SDS011;45751;51.380;10.326;2023-08-31T10:10:45;6.43;;;1.98;;
59880;SDS011;45751;51.380;10.326;2023-08-31T10:13:13;6.43;;;1.75;;
59880;SDS011;45751;51.380;10.326;2023-08-31T10:15:43;6.38;;;1.80;;
59880;SDS011;45751;51.380;10.326;2023-08-31T10:18:10;6.85;;;1.70;;
59880;SDS011;45751;51.380;10.326;2023-08-31T10:20:39;7.95;;;1.90;;
59880;SDS011;45751;51.380;10.326;2023-08-31T10:23:09;7.63;;;2.03;;
59880;SDS011;45751;51.380;10.326;2023-08-31T10:28:17;5.43;;;1.40;;
59880;SDS011;45751;51.380;10.326;2023-08-31T10:31:03;6.05;;;2.13;;
59880;SDS011;45751;51.380;10.326;2023-08-31T10:33:38;6.70;;;1.98;;
59880;SDS011;45751;51.380;10.326;2023-08-31T10:36:17;7.13;;;2.20;;
59880;SDS011;45751;51.380;10.326;2023-08-31T10:39:31;6.63;;;2.00;;
59880;SDS011;45751;51.380;10.326;2023-08-31T10:41:38;6.97;;;1.50;;
59880;SDS011;45751;51.380;10.326;2023-08-31T10:46:46;6.18;;;1.75;;
59880;SDS011;45751;51.380;10.326;2023-08-31T10:49:14;4.93;;;1.48;;
59880;SDS011;45751;51.380;10.326;2023-08-31T10:51:42;6.00;;;1.80;;
59880;SDS011;45751;51.380;10.326;2023-08-31T10:54:26;6.32;;;1.90;;
59880;SDS011;45751;51.380;10.326;2023-08-31T10:59:26;5.47;;;1.67;;
59880;SDS011;45751;51.380;10.326;2023-08-31T11:05:12;6.22;;;1.48;;
59880;SDS011;45751;51.380;10.326;2023-08-31T11:07:46;5.38;;;1.63;;
59880;SDS011;45751;51.380;10.326;2023-08-31T11:10:15;7.32;;;1.48;;
59880;SDS011;45751;51.380;10.326;2023-08-31T11:12:44;6.45;;;1.83;;
59880;SDS011;45751;51.380;10.326;2023-08-31T11:15:13;4.75;;;1.40;;
59880;SDS011;45751;51.380;10.326;2023-08-31T11:17:42;5.75;;;1.85;;
59880;SDS011;45751;51.380;10.326;2023-08-31T11:20:13;5.18;;;1.58;;
59880;SDS011;45751;51.380;10.326;2023-08-31T11:22:44;5.28;;;1.45;;
59880;SDS011;45751;51.380;10.326;2023-08-31T11:25:21;5.07;;;1.50;;
59880;SDS011;45751;51.380;10.326;2023-08-31T11:27:55;5.20;;;1.40;;
59880;SDS011;45751;51.380;10.326;2023-08-31T11:30:24;5.47;;;1.80;;
59880;SDS011;45751;51.380;10.326;2023-08-31T11:33:05;6.65;;;1.80;;
59880;SDS011;45751;51.380;10.326;2023-08-31T11:35:34;6.25;;;1.63;;
59880;SDS011;45751;51.380;10.326;2023-08-31T11:38:03;5.40;;;1.38;;
59880;SDS011;45751;51.380;10.326;2023-08-31T11:40:30;6.68;;;1.73;;
59880;SDS011;45751;51.380;10.326;2023-08-31T11:42:58;6.80;;;1.58;;
59880;SDS011;45751;51.380;10.326;2023-08-31T11:45:29;6.00;;;1.40;;
59880;SDS011;45751;51.380;10.326;2023-08-31T11:47:57;6.32;;;1.95;;
59880;SDS011;45751;51.380;10.326;2023-08-31T11:50:25;7.03;;;1.98;;
59880;SDS011;45751;51.380;10.326;2023-08-31T11:52:53;5.90;;;1.95;;
59880;SDS011;45751;51.380;10.326;2023-08-31T11:55:21;6.82;;;2.40;;
59880;SDS011;45751;51.380;10.326;2023-08-31T11:57:52;6.60;;;2.47;;
59880;SDS011;45751;51.380;10.326;2023-08-31T12:00:21;7.68;;;1.48;;
59880;SDS011;45751;51.380;10.326;2023-08-31T12:03:01;5.75;;;1.65;;
59880;SDS011;45751;51.380;10.326;2023-08-31T12:05:43;6.43;;;1.55;;
59880;SDS011;45751;51.380;10.326;2023-08-31T12:08:15;6.97;;;2.15;;
59880;SDS011;45751;51.380;10.326;2023-08-31T12:10:45;5.95;;;1.77;;
59880;SDS011;45751;51.380;10.326;2023-08-31T12:13:13;10.13;;;1.98;;
59880;SDS011;45751;51.380;10.326;2023-08-31T12:15:40;6.25;;;2.10;;
59880;SDS011;45751;51.380;10.326;2023-08-31T12:18:13;6.60;;;1.95;;
59880;SDS011;45751;51.380;10.326;2023-08-31T12:23:14;5.78;;;1.80;;
59880;SDS011;45751;51.380;10.326;2023-08-31T12:25:45;6.22;;;1.90;;
59880;SDS011;45751;51.380;10.326;2023-08-31T12:28:20;7.32;;;1.80;;
59880;SDS011;45751;51.380;10.326;2023-08-31T12:30:49;6.30;;;1.95;;
59880;SDS011;45751;51.380;10.326;2023-08-31T12:33:17;4.63;;;1.38;;
59880;SDS011;45751;51.380;10.326;2023-08-31T12:35:45;4.82;;;1.40;;
59880;SDS011;45751;51.380;10.326;2023-08-31T12:38:12;5.32;;;1.55;;
59880;SDS011;45751;51.380;10.326;2023-08-31T12:40:40;5.90;;;1.40;;
59880;SDS011;45751;51.380;10.326;2023-08-31T12:43:07;6.93;;;1.52;;
59880;SDS011;45751;51.380;10.326;2023-08-31T12:45:36;6.13;;;1.77;;
59880;SDS011;45751;51.380;10.326;2023-08-31T12:48:03;5.93;;;1.70;;
59880;SDS011;45751;51.380;10.326;2023-08-31T12:50:31;8.00;;;1.58;;
59880;SDS011;45751;51.380;10.326;2023-08-31T12:52:58;5.90;;;1.73;;
59880;SDS011;45751;51.380;10.326;2023-08-31T12:55:25;5.60;;;1.70;;
59880;SDS011;45751;51.380;10.326;2023-08-31T12:57:52;6.90;;;1.52;;
59880;SDS011;45751;51.380;10.326;2023-08-31T13:00:19;6.28;;;1.85;;
59880;SDS011;45751;51.380;10.326;2023-08-31T13:02:46;6.28;;;1.83;;
59880;SDS011;45751;51.380;10.326;2023-08-31T13:05:13;5.18;;;1.35;;
59880;SDS011;45751;51.380;10.326;2023-08-31T13:07:40;5.10;;;1.40;;
59880;SDS011;45751;51.380;10.326;2023-08-31T13:10:07;6.43;;;1.77;;
59880;SDS011;45751;51.380;10.326;2023-08-31T13:12:34;5.68;;;1.85;;
59880;SDS011;45751;51.380;10.326;2023-08-31T13:15:01;6.32;;;1.70;;
59880;SDS011;45751;51.380;10.326;2023-08-31T13:17:29;6.57;;;2.15;;
59880;SDS011;45751;51.380;10.326;2023-08-31T13:19:56;6.15;;;2.35;;
59880;SDS011;45751;51.380;10.326;2023-08-31T13:22:24;5.80;;;1.90;;
59880;SDS011;45751;51.380;10.326;2023-08-31T13:24:51;6.43;;;1.83;;
59880;SDS011;45751;51.380;10.326;2023-08-31T13:27:18;5.85;;;1.90;;
59880;SDS011;45751;51.380;10.326;2023-08-31T13:29:45;8.32;;;1.83;;
59880;SDS011;45751;51.380;10.326;2023-08-31T13:32:12;6.70;;;1.70;;
59880;SDS011;45751;51.380;10.326;2023-08-31T13:34:40;6.65;;;1.83;;
59880;SDS011;45751;51.380;10.326;2023-08-31T13:37:06;8.82;;;2.00;;
59880;SDS011;45751;51.380;10.326;2023-08-31T13:39:34;6.65;;;1.95;;
59880;SDS011;45751;51.380;10.326;2023-08-31T13:42:06;5.78;;;1.73;;
59880;SDS011;45751;51.380;10.326;2023-08-31T13:44:34;5.65;;;1.85;;
59880;SDS011;45751;51.380;10.326;2023-08-31T13:47:01;6.18;;;1.83;;
59880;SDS011;45751;51.380;10.326;2023-08-31T13:49:30;5.90;;;2.03;;
59880;SDS011;45751;51.380;10.326;2023-08-31T13:51:59;7.22;;;2.05;;
59880;SDS011;45751;51.380;10.326;2023-08-31T13:54:26;5.60;;;1.63;;
59880;SDS011;45751;51.380;10.326;2023-08-31T13:56:53;5.60;;;1.50;;
59880;SDS011;45751;51.380;10.326;2023-08-31T13:59:20;5.68;;;1.67;;
59880;SDS011;45751;51.380;10.326;2023-08-31T14:01:47;5.63;;;1.63;;
59880;SDS011;45751;51.380;10.326;2023-08-31T14:04:14;5.50;;;1.90;;
59880;SDS011;45751;51.380;10.326;2023-08-31T14:06:40;5.57;;;1.98;;
59880;SDS011;45751;51.380;10.326;2023-08-31T14:09:07;6.13;;;1.77;;
59880;SDS011;45751;51.380;10.326;2023-08-31T14:11:35;6.88;;;2.13;;
59880;SDS011;45751;51.380;10.326;2023-08-31T14:14:03;6.72;;;1.92;;
59880;SDS011;45751;51.380;10.326;2023-08-31T14:16:37;6.47;;;1.75;;
59880;SDS011;45751;51.380;10.326;2023-08-31T14:19:05;6.93;;;1.88;;
59880;SDS011;45751;51.380;10.326;2023-08-31T14:21:32;5.63;;;1.80;;
59880;SDS011;45751;51.380;10.326;2023-08-31T14:23:59;6.03;;;1.92;;
59880;SDS011;45751;51.380;10.326;2023-08-31T14:26:26;4.88;;;1.38;;
59880;SDS011;45751;51.380;10.326;2023-08-31T14:28:53;6.65;;;1.75;;
59880;SDS011;45751;51.380;10.326;2023-08-31T14:31:20;6.07;;;1.90;;
59880;SDS011;45751;51.380;10.326;2023-08-31T14:33:47;7.60;;;1.80;;
59880;SDS011;45751;51.380;10.326;2023-08-31T14:36:15;5.22;;;1.52;;
59880;SDS011;45751;51.380;10.326;2023-08-31T14:38:42;5.97;;;1.58;;
59880;SDS011;45751;51.380;10.326;2023-08-31T14:41:09;5.00;;;1.48;;
59880;SDS011;45751;51.380;10.326;2023-08-31T14:43:36;7.30;;;1.85;;
59880;SDS011;45751;51.380;10.326;2023-08-31T14:46:03;6.15;;;1.73;;
59880;SDS011;45751;51.380;10.326;2023-08-31T14:48:30;5.40;;;1.55;;
59880;SDS011;45751;51.380;10.326;2023-08-31T14:50:58;5.82;;;1.63;;
59880;SDS011;45751;51.380;10.326;2023-08-31T14:53:26;5.43;;;1.60;;
59880;SDS011;45751;51.380;10.326;2023-08-31T14:55:53;6.45;;;1.60;;
59880;SDS011;45751;51.380;10.326;2023-08-31T14:58:20;6.05;;;1.52;;
59880;SDS011;45751;51.380;10.326;2023-08-31T15:00:48;6.05;;;1.70;;